createdAt,value
2022-10-01T00:00:49.153Z,14.00
2022-10-01T00:03:15.673Z,15.00
2022-10-01T00:05:43.119Z,13.67
2022-10-01T00:08:09.562Z,15.50
2022-10-01T00:10:36.023Z,15.00
2022-10-01T00:13:02.466Z,17.00
2022-10-01T00:15:29.864Z,15.67
2022-10-01T00:17:56.291Z,15.00
2022-10-01T00:20:22.752Z,16.00
2022-10-01T00:22:50.114Z,13.67
2022-10-01T00:25:17.485Z,17.00
2022-10-01T00:27:44.023Z,17.00
2022-10-01T00:30:10.577Z,17.00
2022-10-01T00:32:37.019Z,14.00
2022-10-01T00:35:03.471Z,15.50
2022-10-01T00:37:30.867Z,13.33
2022-10-01T00:39:57.308Z,16.00
2022-10-01T00:42:24.716Z,17.67
2022-10-01T00:44:51.154Z,16.00
2022-10-01T00:47:18.511Z,15.00
2022-10-01T00:49:44.940Z,18.00
2022-10-01T00:52:11.399Z,15.50
2022-10-01T00:54:38.801Z,17.67
2022-10-01T00:57:06.234Z,16.00
2022-10-01T00:59:33.618Z,15.33
2022-10-01T01:02:00.112Z,17.00
2022-10-01T01:04:27.539Z,14.67
2022-10-01T01:06:53.985Z,17.50
2022-10-01T01:09:20.441Z,17.00
2022-10-01T01:11:46.848Z,16.00
2022-10-01T01:14:13.401Z,17.00
2022-10-01T01:16:40.787Z,17.67
2022-10-01T01:19:07.317Z,15.00
2022-10-01T01:21:34.890Z,16.00
2022-10-01T01:24:01.467Z,17.50
2022-10-01T01:26:27.910Z,19.00
2022-10-01T01:28:54.355Z,16.00
2022-10-01T01:31:21.777Z,14.67
2022-10-01T01:33:49.135Z,14.00
2022-10-01T01:36:15.601Z,17.00
2022-10-01T01:38:42.966Z,16.00
2022-10-01T01:41:09.420Z,19.50
2022-10-01T01:43:36.786Z,18.00
2022-10-01T01:46:03.487Z,19.50
2022-10-01T01:48:30.035Z,16.00
2022-10-01T01:50:56.495Z,19.00
2022-10-01T01:53:22.954Z,18.00
2022-10-01T01:55:49.407Z,16.00
2022-10-01T01:58:16.781Z,17.00
2022-10-01T02:00:44.145Z,17.00
2022-10-01T02:03:11.599Z,18.50
2022-10-01T02:05:38.047Z,18.00
2022-10-01T02:08:04.501Z,19.00
2022-10-01T02:10:30.947Z,18.00
2022-10-01T02:12:57.380Z,17.00
2022-10-01T02:15:24.755Z,15.67
2022-10-01T02:17:51.211Z,18.00
2022-10-01T02:20:18.617Z,21.00
2022-10-01T02:22:45.056Z,16.00
2022-10-01T02:25:11.478Z,17.00
2022-10-01T02:27:37.903Z,16.00
2022-10-01T02:30:04.375Z,20.00
2022-10-01T02:32:30.822Z,16.00
2022-10-01T02:34:58.210Z,18.50
2022-10-01T02:37:25.593Z,16.33
2022-10-01T02:39:52.037Z,17.00
2022-10-01T02:42:19.400Z,17.50
2022-10-01T02:44:45.867Z,18.50
2022-10-01T02:47:12.347Z,18.50
2022-10-01T02:49:38.774Z,18.00
2022-10-01T02:52:05.243Z,20.00
2022-10-01T02:54:32.607Z,19.50
2022-10-01T02:56:59.057Z,19.00
2022-10-01T02:59:25.643Z,20.00
2022-10-01T03:01:52.267Z,18.50
2022-10-01T03:04:19.665Z,18.00
2022-10-01T03:06:47.040Z,19.00
2022-10-01T03:09:14.454Z,19.00
2022-10-01T03:11:42.056Z,20.00
2022-10-01T03:14:08.539Z,18.50
2022-10-01T03:16:35.894Z,19.50
2022-10-01T03:19:02.360Z,18.50
2022-10-01T03:21:28.811Z,19.00
2022-10-01T03:23:55.323Z,22.00
2022-10-01T03:26:21.785Z,18.00
2022-10-01T03:28:48.229Z,19.00
2022-10-01T03:31:15.654Z,20.50
2022-10-01T03:33:42.130Z,19.00
2022-10-01T03:36:08.628Z,20.00
2022-10-01T03:38:35.987Z,19.50
2022-10-01T03:41:02.446Z,21.00
2022-10-01T03:43:28.896Z,19.00
2022-10-01T03:45:55.453Z,16.00
2022-10-01T03:48:21.943Z,15.50
2022-10-01T03:50:49.351Z,21.00
2022-10-01T03:53:16.729Z,19.50
2022-10-01T03:55:43.173Z,18.00
2022-10-01T03:58:09.636Z,19.00
2022-10-01T04:00:36.075Z,18.00
2022-10-01T04:03:02.655Z,17.50
2022-10-01T04:05:30.066Z,14.67
2022-10-01T04:07:56.505Z,14.00
2022-10-01T04:10:23.886Z,15.00
2022-10-01T04:12:51.253Z,13.67
2022-10-01T04:15:18.644Z,16.67
2022-10-01T04:17:46.052Z,13.00
2022-10-01T04:20:12.658Z,13.00
2022-10-01T04:22:39.917Z,11.67
2022-10-01T04:25:06.423Z,15.00
2022-10-01T04:27:32.854Z,15.00
2022-10-01T04:30:00.202Z,13.00
2022-10-01T04:32:26.628Z,12.50
2022-10-01T04:34:53.969Z,13.67
2022-10-01T04:37:20.455Z,14.00
2022-10-01T04:39:46.903Z,16.00
2022-10-01T04:42:14.274Z,14.67
2022-10-01T04:44:41.655Z,14.00
2022-10-01T04:47:08.232Z,13.00
2022-10-01T04:49:34.767Z,13.00
2022-10-01T04:52:01.200Z,14.00
2022-10-01T04:54:28.538Z,12.00
2022-10-01T04:56:55.895Z,13.00
2022-10-01T04:59:23.589Z,12.67
2022-10-01T05:01:50.938Z,10.67
2022-10-01T05:04:18.463Z,9.33
2022-10-01T05:06:45.115Z,11.00
2022-10-01T05:09:12.528Z,10.67
2022-10-01T05:11:41.106Z,8.00
2022-10-01T05:14:07.572Z,10.00
2022-10-01T05:16:34.093Z,10.00
2022-10-01T05:19:03.329Z,9.17
2022-10-01T05:21:29.745Z,10.50
2022-10-01T05:23:57.095Z,12.33
2022-10-01T05:26:23.486Z,13.50
2022-10-01T05:28:50.899Z,12.67
2022-10-01T05:31:17.330Z,13.00
2022-10-01T05:33:44.721Z,13.33
2022-10-01T05:36:11.181Z,13.00
2022-10-01T05:38:38.511Z,12.33
2022-10-01T05:41:05.911Z,14.33
2022-10-01T05:43:32.358Z,14.00
2022-10-01T05:45:58.875Z,15.50
2022-10-01T05:48:25.340Z,15.00
2022-10-01T05:50:51.848Z,18.00
2022-10-01T05:53:18.319Z,14.00
2022-10-01T05:55:44.768Z,17.00
2022-10-01T05:58:12.142Z,18.00
2022-10-01T06:00:38.615Z,20.00
2022-10-01T06:03:06.056Z,21.50
2022-10-01T06:05:32.581Z,23.00
2022-10-01T06:07:59.983Z,25.33
2022-10-01T06:10:27.447Z,24.33
2022-10-01T06:12:54.874Z,27.33
2022-10-01T06:15:21.315Z,26.00
2022-10-01T06:17:47.778Z,26.00
2022-10-01T06:20:14.263Z,24.50
2022-10-01T06:22:40.701Z,28.50
2022-10-01T06:25:07.172Z,26.00
2022-10-01T06:27:34.587Z,25.67
2022-10-01T06:30:01.080Z,28.00
2022-10-01T06:32:32.764Z,24.33
2022-10-01T06:35:02.181Z,25.33
2022-10-01T06:37:29.556Z,25.00
2022-10-01T06:39:56.951Z,24.33
2022-10-01T06:42:24.351Z,24.33
2022-10-01T06:44:51.726Z,22.33
2022-10-01T06:47:18.246Z,22.00
2022-10-01T06:49:47.666Z,23.50
2022-10-01T06:52:15.315Z,22.50
2022-10-01T06:54:41.794Z,22.00
2022-10-01T06:57:08.260Z,18.00
2022-10-01T06:59:34.720Z,22.50
2022-10-01T07:02:02.158Z,18.00
2022-10-01T07:04:28.712Z,17.00
2022-10-01T07:06:55.162Z,16.50
2022-10-01T07:09:21.619Z,19.50
2022-10-01T07:11:48.076Z,20.50
2022-10-01T07:14:15.452Z,19.00
2022-10-01T07:16:41.968Z,21.50
2022-10-01T07:19:08.518Z,23.00
2022-10-01T07:21:35.247Z,21.00
2022-10-01T07:24:02.050Z,21.00
2022-10-01T07:26:28.510Z,21.00
2022-10-01T07:28:54.965Z,20.50
2022-10-01T07:31:21.478Z,21.00
2022-10-01T07:33:47.968Z,21.00
2022-10-01T07:36:15.362Z,18.00
2022-10-01T07:38:41.848Z,15.50
2022-10-01T07:41:08.522Z,19.00
2022-10-01T07:43:35.921Z,24.33
2022-10-01T07:46:02.443Z,20.00
2022-10-01T07:48:28.913Z,17.00
2022-10-01T07:50:56.364Z,18.67
2022-10-01T07:53:22.859Z,23.00
2022-10-01T07:55:50.220Z,16.33
2022-10-01T07:58:17.636Z,16.50
2022-10-01T08:00:44.055Z,14.50
2022-10-01T08:03:11.401Z,13.67
2022-10-01T08:05:37.851Z,13.00
2022-10-01T08:08:05.220Z,13.00
2022-10-01T08:10:31.640Z,11.00
2022-10-01T08:12:59.021Z,12.67
2022-10-01T08:15:26.346Z,12.33
2022-10-01T08:17:53.705Z,13.67
2022-10-01T08:20:20.219Z,12.50
2022-10-01T08:22:46.677Z,15.00
2022-10-01T08:25:13.107Z,14.50
2022-10-01T08:27:40.467Z,13.67
2022-10-01T08:30:07.831Z,13.67
2022-10-01T08:32:34.289Z,16.00
2022-10-01T08:35:00.757Z,19.00
2022-10-01T08:37:27.221Z,17.50
2022-10-01T08:39:53.666Z,19.50
2022-10-01T08:42:21.066Z,18.50
2022-10-01T08:44:47.601Z,20.50
2022-10-01T08:47:15.049Z,19.50
2022-10-01T08:49:41.528Z,21.00
2022-10-01T08:52:08.019Z,24.50
2022-10-01T08:54:34.478Z,23.50
2022-10-01T08:57:00.942Z,21.50
2022-10-01T08:59:27.599Z,23.00
2022-10-01T09:01:54.070Z,19.00
2022-10-01T09:04:21.563Z,18.50
2022-10-01T09:06:49.085Z,21.67
2022-10-01T09:09:16.466Z,22.50
2022-10-01T09:11:42.938Z,18.00
2022-10-01T09:14:09.428Z,18.00
2022-10-01T09:16:35.898Z,17.50
2022-10-01T09:19:02.443Z,17.00
2022-10-01T09:21:28.884Z,16.00
2022-10-01T09:23:55.332Z,14.00
2022-10-01T09:26:25.745Z,12.33
2022-10-01T09:28:52.323Z,14.00
2022-10-01T09:31:19.664Z,13.00
2022-10-01T09:33:46.109Z,11.00
2022-10-01T09:36:13.441Z,12.33
2022-10-01T09:38:40.664Z,12.00
2022-10-01T09:41:09.730Z,12.67
2022-10-01T09:43:37.603Z,10.67
2022-10-01T09:46:04.603Z,15.00
2022-10-01T09:48:31.238Z,13.00
2022-10-01T09:50:58.490Z,11.33
2022-10-01T09:53:24.947Z,13.00
2022-10-01T09:55:51.370Z,13.00
2022-10-01T09:58:18.735Z,13.33
2022-10-01T10:00:45.188Z,12.00
2022-10-01T10:03:11.729Z,16.00
2022-10-01T10:05:38.259Z,16.00
2022-10-01T10:08:04.714Z,15.00
2022-10-01T10:10:32.065Z,14.67
2022-10-01T10:12:59.460Z,14.67
2022-10-01T10:15:26.851Z,15.33
2022-10-01T10:17:53.296Z,16.00
2022-10-01T10:20:19.772Z,23.00
2022-10-01T10:22:47.165Z,18.67
2022-10-01T10:25:13.610Z,16.50
2022-10-01T10:27:40.063Z,14.50
2022-10-01T10:30:07.403Z,13.67
2022-10-01T10:32:34.783Z,24.67
2022-10-01T10:35:03.445Z,27.00
2022-10-01T10:37:30.105Z,16.00
2022-10-01T10:39:57.504Z,16.33
2022-10-01T10:42:23.955Z,14.50
2022-10-01T10:44:51.412Z,23.00
2022-10-01T10:47:18.838Z,36.00
2022-10-01T10:49:45.371Z,21.00
2022-10-01T10:52:11.838Z,16.50
2022-10-01T10:54:38.312Z,17.50
2022-10-01T10:57:04.793Z,15.50
2022-10-01T10:59:32.198Z,19.67
2022-10-01T11:01:58.805Z,19.00
2022-10-01T11:04:26.250Z,17.33
2022-10-01T11:06:52.699Z,16.00
2022-10-01T11:09:20.068Z,15.67
2022-10-01T11:11:46.514Z,15.00
2022-10-01T11:14:12.964Z,15.50
2022-10-01T11:16:39.402Z,13.50
2022-10-01T11:19:06.724Z,12.33
2022-10-01T11:21:33.178Z,12.00
2022-10-01T11:24:00.595Z,15.33
2022-10-01T11:26:27.926Z,14.00
2022-10-01T11:28:54.379Z,15.00
2022-10-01T11:31:20.832Z,14.00
2022-10-01T11:33:48.107Z,12.00
2022-10-01T11:36:14.530Z,12.00
2022-10-01T11:38:42.799Z,9.00
2022-10-01T11:41:10.029Z,10.00
2022-10-01T11:43:36.531Z,10.00
2022-10-01T11:46:05.697Z,10.67
2022-10-01T11:48:33.073Z,11.00
2022-10-01T11:51:00.330Z,11.67
2022-10-01T11:53:26.766Z,10.00
2022-10-01T11:55:55.098Z,11.20
2022-10-01T11:58:22.356Z,12.00
2022-10-01T12:00:48.847Z,10.50
2022-10-01T12:03:17.164Z,9.40
2022-10-01T12:05:45.487Z,9.00
2022-10-01T12:08:13.797Z,7.80
2022-10-01T12:10:42.091Z,6.40
2022-10-01T12:13:10.380Z,9.20
2022-10-01T12:15:36.773Z,6.50
2022-10-01T12:18:05.916Z,6.33
2022-10-01T12:20:32.287Z,7.00
2022-10-01T12:23:01.416Z,6.00
2022-10-01T12:25:27.799Z,7.00
2022-10-01T12:27:54.282Z,7.33
2022-10-01T12:30:20.641Z,2.00
2022-10-01T12:32:49.765Z,7.00
2022-10-01T12:35:16.974Z,7.00
2022-10-01T12:37:46.155Z,9.00
2022-10-01T12:40:14.475Z,9.20
2022-10-01T12:42:42.725Z,9.00
2022-10-01T12:45:09.184Z,7.00
2022-10-01T12:47:35.602Z,9.00
2022-10-01T12:50:02.069Z,7.00
2022-10-01T12:52:30.306Z,6.00
2022-10-01T12:54:59.458Z,7.17
2022-10-01T12:57:28.566Z,6.00
2022-10-01T12:59:55.822Z,7.00
2022-10-01T13:02:23.126Z,6.75
2022-10-01T13:04:49.578Z,7.00
2022-10-01T13:07:15.972Z,7.00
2022-10-01T13:09:48.027Z,7.00
2022-10-01T13:12:18.002Z,6.50
2022-10-01T13:14:44.365Z,6.00
2022-10-01T13:17:10.840Z,6.50
2022-10-01T13:19:37.239Z,6.00
2022-10-01T13:22:03.623Z,6.00
2022-10-01T13:24:30.851Z,5.75
2022-10-01T13:26:57.234Z,6.00
2022-10-01T13:29:23.682Z,7.00
2022-10-01T13:31:50.073Z,7.00
2022-10-01T13:34:17.278Z,6.50
2022-10-01T13:36:43.605Z,5.00
2022-10-01T13:39:10.092Z,5.00
2022-10-01T13:41:36.753Z,6.00
2022-10-01T13:44:04.305Z,5.50
2022-10-01T13:46:30.706Z,6.00
2022-10-01T13:48:57.956Z,6.00
2022-10-01T13:51:24.287Z,5.00
2022-10-01T13:53:50.628Z,5.00
2022-10-01T13:56:16.970Z,5.00
2022-10-01T13:58:43.315Z,5.00
2022-10-01T14:01:14.470Z,6.00
2022-10-01T14:03:41.392Z,5.33
2022-10-01T14:06:07.731Z,5.50
2022-10-01T14:08:34.062Z,5.33
2022-10-01T14:11:01.268Z,5.25
2022-10-01T14:13:27.615Z,5.33
2022-10-01T14:15:54.076Z,3.67
2022-10-01T14:18:21.301Z,5.50
2022-10-01T14:20:47.681Z,6.00
2022-10-01T14:23:14.106Z,6.67
2022-10-01T14:25:40.436Z,5.67
2022-10-01T14:28:06.863Z,3.00
2022-10-01T14:30:33.243Z,5.00
2022-10-01T14:32:59.572Z,5.33
2022-10-01T14:35:25.863Z,6.00
2022-10-01T14:37:52.213Z,5.00
2022-10-01T14:40:19.401Z,5.00
2022-10-01T14:42:45.805Z,4.33
2022-10-01T14:45:12.994Z,5.00
2022-10-01T14:47:39.335Z,5.67
2022-10-01T14:50:05.700Z,5.00
2022-10-01T14:52:32.011Z,5.33
2022-10-01T14:54:58.344Z,4.67
2022-10-01T14:57:25.539Z,5.00
2022-10-01T14:59:51.952Z,5.00
2022-10-01T15:02:18.312Z,5.00
2022-10-01T15:04:44.707Z,4.67
2022-10-01T15:07:11.080Z,5.00
2022-10-01T15:09:37.422Z,6.00
2022-10-01T15:12:03.784Z,4.67
2022-10-01T15:14:30.105Z,4.33
2022-10-01T15:16:56.607Z,3.67
2022-10-01T15:19:22.925Z,5.00
2022-10-01T15:21:49.351Z,4.67
2022-10-01T15:24:15.731Z,5.00
2022-10-01T15:26:42.079Z,5.00
2022-10-01T15:29:09.426Z,4.00
2022-10-01T15:31:35.809Z,6.00
2022-10-01T15:34:02.217Z,4.33
2022-10-01T15:36:28.663Z,5.00
2022-10-01T15:38:55.016Z,5.00
2022-10-01T15:41:31.524Z,5.00
2022-10-01T15:43:58.772Z,5.00
2022-10-01T15:46:25.262Z,4.00
2022-10-01T15:48:51.678Z,4.67
2022-10-01T15:51:18.019Z,4.67
2022-10-01T15:53:44.345Z,4.00
2022-10-01T15:56:10.676Z,3.00
2022-10-01T15:58:37.008Z,4.00
2022-10-01T16:01:03.422Z,4.00
2022-10-01T16:03:29.782Z,4.00
2022-10-01T16:05:56.139Z,3.00
2022-10-01T16:08:22.488Z,2.00
2022-10-01T16:10:48.814Z,5.00
2022-10-01T16:13:15.132Z,5.00
2022-10-01T16:15:41.510Z,4.33
2022-10-01T16:18:07.871Z,4.67
2022-10-01T16:20:34.200Z,4.67
2022-10-01T16:23:00.537Z,5.00
2022-10-01T16:25:26.853Z,4.00
2022-10-01T16:27:53.242Z,5.00
2022-10-01T16:30:19.681Z,5.00
2022-10-01T16:32:46.016Z,3.67
2022-10-01T16:35:13.224Z,4.00
2022-10-01T16:37:39.547Z,4.00
2022-10-01T16:40:06.095Z,4.00
2022-10-01T16:42:32.492Z,5.00
2022-10-01T16:44:58.858Z,5.00
2022-10-01T16:47:25.219Z,5.00
2022-10-01T16:49:51.548Z,5.00
2022-10-01T16:52:18.734Z,6.25
2022-10-01T16:54:45.168Z,6.00
2022-10-01T16:57:12.414Z,6.00
2022-10-01T16:59:39.786Z,6.25
2022-10-01T17:02:07.047Z,5.00
2022-10-01T17:04:34.071Z,5.00
2022-10-01T17:07:00.643Z,5.00
2022-10-01T17:09:26.999Z,5.33
2022-10-01T17:11:53.413Z,4.33
2022-10-01T17:14:20.614Z,5.25
2022-10-01T17:16:47.823Z,5.50
2022-10-01T17:19:15.121Z,6.00
2022-10-01T17:21:42.530Z,5.00
2022-10-01T17:24:09.156Z,6.00
2022-10-01T17:26:35.885Z,5.00
2022-10-01T17:29:02.543Z,4.00
2022-10-01T17:31:30.131Z,6.00
2022-10-01T17:33:56.893Z,6.00
2022-10-01T17:36:23.349Z,4.67
2022-10-01T17:38:50.960Z,6.00
2022-10-01T17:41:18.304Z,5.00
2022-10-01T17:43:44.803Z,6.00
2022-10-01T17:46:11.249Z,5.67
2022-10-01T17:48:37.877Z,4.67
2022-10-01T17:51:04.569Z,5.00
2022-10-01T17:53:35.977Z,5.33
2022-10-01T17:56:06.343Z,5.33
2022-10-01T17:58:32.862Z,6.00
2022-10-01T18:00:59.305Z,6.00
2022-10-01T18:03:26.069Z,6.67
2022-10-01T18:05:53.963Z,6.00
2022-10-01T18:08:29.557Z,6.00
2022-10-01T18:11:07.002Z,6.00
2022-10-01T18:13:33.364Z,6.00
2022-10-01T18:16:00.389Z,6.00
2022-10-01T18:19:51.252Z,5.00
2022-10-01T18:21:14.751Z,6.25
2022-10-01T18:23:41.868Z,4.00
2022-10-01T18:26:08.760Z,5.50
2022-10-01T18:28:35.658Z,6.67
2022-10-01T18:31:02.440Z,6.00
2022-10-01T18:33:32.096Z,7.50
2022-10-01T18:36:02.711Z,6.17
2022-10-01T18:38:29.601Z,6.00
2022-10-01T18:40:56.175Z,7.00
2022-10-01T18:43:23.012Z,6.50
2022-10-01T18:45:51.747Z,8.20
2022-10-01T18:48:21.251Z,7.67
2022-10-01T18:50:48.577Z,8.50
2022-10-01T18:53:15.178Z,6.50
2022-10-01T18:55:44.692Z,7.67
2022-10-01T18:58:11.485Z,8.00
2022-10-01T19:00:38.677Z,8.00
2022-10-01T19:03:05.496Z,6.00
2022-10-01T19:05:32.414Z,6.00
2022-10-01T19:07:58.898Z,8.00
2022-10-01T19:10:25.691Z,7.50
2022-10-01T19:12:54.826Z,7.33
2022-10-01T19:15:21.195Z,6.50
2022-10-01T19:17:50.402Z,7.00
2022-10-01T19:20:17.873Z,7.50
2022-10-01T19:22:44.299Z,6.00
2022-10-01T19:25:13.499Z,7.33
2022-10-01T19:27:42.015Z,7.20
2022-10-01T19:30:08.549Z,7.00
2022-10-01T19:32:36.847Z,7.60
2022-10-01T19:35:03.250Z,8.00
2022-10-01T19:37:32.583Z,6.83
2022-10-01T19:39:59.803Z,6.75
2022-10-01T19:42:27.140Z,7.00
2022-10-01T19:44:54.393Z,7.00
2022-10-01T19:47:20.948Z,7.00
2022-10-01T19:49:47.348Z,6.00
2022-10-01T19:52:15.808Z,7.00
2022-10-01T19:54:42.257Z,7.50
2022-10-01T19:57:08.690Z,8.00
2022-10-01T19:59:37.862Z,6.33
2022-10-01T20:02:07.081Z,7.00
2022-10-01T20:04:33.471Z,6.50
2022-10-01T20:06:59.819Z,6.00
2022-10-01T20:09:28.510Z,7.20
2022-10-01T20:11:58.134Z,7.67
2022-10-01T20:14:26.568Z,7.80
2022-10-01T20:16:56.575Z,9.29
2022-10-01T20:19:25.817Z,7.33
2022-10-01T20:21:52.260Z,7.00
2022-10-01T20:24:18.608Z,6.50
2022-10-01T20:26:45.064Z,8.00
2022-10-01T20:29:13.352Z,8.00
2022-10-01T20:31:39.852Z,9.50
2022-10-01T20:34:07.112Z,8.67
2022-10-01T20:36:35.410Z,8.00
2022-10-01T20:39:02.877Z,10.00
2022-10-01T20:41:30.163Z,12.00
2022-10-01T20:43:56.559Z,9.00
2022-10-01T20:46:23.071Z,9.00
2022-10-01T20:48:49.698Z,8.50
2022-10-01T20:51:17.953Z,8.80
2022-10-01T20:53:44.401Z,7.00
2022-10-01T20:56:12.658Z,7.60
2022-10-01T20:58:39.996Z,12.00
2022-10-01T21:01:06.435Z,12.00
2022-10-01T21:03:32.937Z,9.50
2022-10-01T21:05:59.418Z,8.50
2022-10-01T21:08:25.871Z,8.00
2022-10-01T21:10:55.032Z,8.17
2022-10-01T21:13:22.287Z,10.00
2022-10-01T21:15:50.560Z,7.40
2022-10-01T21:18:16.971Z,8.50
2022-10-01T21:20:44.291Z,9.67
2022-10-01T21:23:10.754Z,9.00
2022-10-01T21:25:39.917Z,7.33
2022-10-01T21:28:07.160Z,9.00
2022-10-01T21:30:36.367Z,7.83
2022-10-01T21:33:02.847Z,8.50
2022-10-01T21:35:29.329Z,8.00
2022-10-01T21:37:57.633Z,8.00
2022-10-01T21:40:24.913Z,10.33
2022-10-01T21:42:51.332Z,9.50
2022-10-01T21:45:18.629Z,10.33
2022-10-01T21:47:45.053Z,12.00
2022-10-01T21:50:12.367Z,12.67
2022-10-01T21:52:39.683Z,12.33
2022-10-01T21:55:06.139Z,11.50
2022-10-01T21:57:32.545Z,11.00
2022-10-01T21:59:59.021Z,10.50
2022-10-01T22:02:26.355Z,10.00
2022-10-01T22:04:52.811Z,12.00
2022-10-01T22:07:20.100Z,12.67
2022-10-01T22:09:47.477Z,16.00
2022-10-01T22:12:14.830Z,19.00
2022-10-01T22:14:41.286Z,20.00
2022-10-01T22:17:08.762Z,19.50
2022-10-01T22:19:35.221Z,20.50
2022-10-01T22:22:01.665Z,17.00
2022-10-01T22:24:28.129Z,16.00
2022-10-01T22:26:54.547Z,14.00
2022-10-01T22:29:21.915Z,12.67
2022-10-01T22:31:48.414Z,12.00
2022-10-01T22:34:15.776Z,12.00
2022-10-01T22:36:43.136Z,13.67
2022-10-01T22:39:10.484Z,12.67
2022-10-01T22:41:36.904Z,10.50
2022-10-01T22:44:04.335Z,13.33
2022-10-01T22:46:30.727Z,12.00
2022-10-01T22:48:58.085Z,12.33
2022-10-01T22:51:25.413Z,12.33
2022-10-01T22:53:52.664Z,10.67
2022-10-01T22:56:19.914Z,10.00
2022-10-01T22:58:46.323Z,12.00
2022-10-01T23:01:13.618Z,9.33
2022-10-01T23:03:40.892Z,9.67
2022-10-01T23:06:08.135Z,9.33
2022-10-01T23:08:35.356Z,8.33
2022-10-01T23:11:03.709Z,8.60
2022-10-01T23:13:30.932Z,9.00
2022-10-01T23:15:57.486Z,8.00
2022-10-01T23:18:24.024Z,8.00
2022-10-01T23:20:52.267Z,7.60
2022-10-01T23:23:18.699Z,8.00
2022-10-01T23:25:45.043Z,5.67
2022-10-01T23:28:11.573Z,10.00
2022-10-01T23:30:37.984Z,8.00
2022-10-01T23:33:04.435Z,6.00
2022-10-01T23:35:30.824Z,7.50
2022-10-01T23:37:58.110Z,8.00
2022-10-01T23:40:24.445Z,6.00
2022-10-01T23:42:51.641Z,6.00
2022-10-01T23:45:17.991Z,6.00
2022-10-01T23:47:44.345Z,6.33
2022-10-01T23:50:10.697Z,6.00
2022-10-01T23:52:37.025Z,5.67
2022-10-01T23:55:03.369Z,6.33
2022-10-01T23:57:30.572Z,4.75
2022-10-01T23:59:56.935Z,6.00
